Weather at Chios Island National Airport

Public forecast

Using degrees Celsius for public forecast. Weather courtesy of forecast.io.

Current aviation weather report (METAR) for Chios Island National Airport

Retrieved 2021/01/27 23:50 UTC (2 hours ago):

LGHI 272350Z 32003KT 9999 FEW020 SCT025 05/M00 Q1008

Aviation forecast (TAF) for Chios Island National Airport

Forecast is more than 12 hours old.

Retrieved 2012/09/21 03:06 UTC (8 years ago):

TAF TAF LGHI 210200Z 2103/2115 VRB05KT 9999 SCT020 PROB30 TEMPO 2103/2106 7000 RA SCT018 BKN030 BECMG 2103/2105 30018KT